Time;durP1;ratioP1;P1;durP2;ratioP2;P2;SDS_P1;SDS_P2;PMS_P1;PMS_P2;Temp;Humidity;BMP_temperature;BMP_pressure;BME280_temperature;BME280_humidity;BME280_pressure;Samples;Min_cycle;Max_cycle;Signal;HPM_P1;HPM_P2
2021/09/23 00:01:30;;;;;;;4.15;3.75;;;;;;;8.71;95.75;96626.06;5069736;28;20794;-76
2021/09/23 00:04:02;;;;;;;4.60;3.85;;;;;;;8.39;96.71;96627.41;5070005;28;20799;-76
2021/09/23 00:06:28;;;;;;;7.78;3.97;;;;;;;8.13;96.97;96637.00;5070897;28;20684;-76
2021/09/23 00:08:55;;;;;;;5.55;3.75;;;;;;;7.89;98.85;96637.94;5071727;28;20769;-76
2021/09/23 00:11:22;;;;;;;7.82;4.30;;;;;;;7.75;99.60;96629.00;5070946;28;24447;-76
2021/09/23 00:13:48;;;;;;;4.50;3.70;;;;;;;7.74;100.00;96627.28;5070473;28;20816;-76
2021/09/23 00:16:19;;;;;;;6.18;4.22;;;;;;;7.73;99.84;96627.38;5069481;28;24430;-76
2021/09/23 00:18:46;;;;;;;6.03;4.70;;;;;;;7.86;100.00;96623.44;5069862;28;20730;-77
2021/09/23 00:21:12;;;;;;;4.97;4.43;;;;;;;7.80;100.00;96618.50;5069599;28;20765;-76
2021/09/23 00:23:39;;;;;;;6.60;4.75;;;;;;;7.80;100.00;96622.81;5069960;28;24477;-76
2021/09/23 00:26:05;;;;;;;7.38;4.60;;;;;;;7.85;100.00;96615.75;5071918;28;24472;-76
2021/09/23 00:28:32;;;;;;;6.32;4.85;;;;;;;7.77;100.00;96616.03;5074240;28;24423;-77
2021/09/23 00:30:58;;;;;;;4.70;4.30;;;;;;;7.78;100.00;96607.38;5076081;28;24863;-76
2021/09/23 00:33:26;;;;;;;5.60;4.95;;;;;;;7.70;100.00;96599.94;5075319;28;24757;-76
2021/09/23 00:35:52;;;;;;;7.60;4.47;;;;;;;7.73;100.00;96605.00;5075346;28;24414;-76
2021/09/23 00:38:19;;;;;;;5.40;4.63;;;;;;;7.74;100.00;96600.66;5075616;28;24476;-76
2021/09/23 00:40:45;;;;;;;6.93;4.68;;;;;;;7.79;100.00;96597.91;5073446;28;24430;-76
2021/09/23 00:43:12;;;;;;;5.30;4.70;;;;;;;7.84;100.00;96599.44;5072848;28;24430;-76
2021/09/23 00:45:38;;;;;;;5.55;4.90;;;;;;;7.83;100.00;96596.91;5072623;28;24419;-76
2021/09/23 00:48:05;;;;;;;6.85;4.15;;;;;;;7.86;100.00;96602.81;5072711;28;24808;-77
2021/09/23 00:50:33;;;;;;;5.20;4.20;;;;;;;7.89;100.00;96604.41;5072617;28;25005;-77
2021/09/23 00:52:59;;;;;;;5.03;4.13;;;;;;;7.91;100.00;96603.44;5073239;28;24509;-76
2021/09/23 00:55:26;;;;;;;4.57;3.90;;;;;;;7.90;100.00;96600.94;5072376;28;24525;-77
2021/09/23 00:57:53;;;;;;;5.93;3.45;;;;;;;7.97;100.00;96608.38;5072847;28;24477;-76
2021/09/23 01:00:22;;;;;;;5.38;3.78;;;;;;;7.94;100.00;96600.75;5074313;28;24419;-76
2021/09/23 01:02:48;;;;;;;4.65;3.60;;;;;;;7.88;100.00;96601.00;5074367;28;20769;-76
2021/09/23 01:05:15;;;;;;;10.32;4.47;;;;;;;7.94;100.00;96599.91;5074763;28;24418;-77
2021/09/23 01:07:45;;;;;;;6.13;4.03;;;;;;;7.97;96.92;96598.06;5074908;28;20762;-77
2021/09/23 01:10:13;;;;;;;7.78;4.57;;;;;;;7.94;95.77;96594.75;5074470;28;20701;-76
2021/09/23 01:12:39;;;;;;;6.25;5.35;;;;;;;7.69;97.91;96592.28;5074528;28;24421;-76
2021/09/23 01:15:07;;;;;;;5.97;5.18;;;;;;;7.67;98.82;96591.50;5074186;28;24544;-77
2021/09/23 01:17:34;;;;;;;6.03;5.43;;;;;;;7.54;100.00;96590.28;5075018;28;20823;-76
2021/09/23 01:20:01;;;;;;;7.32;5.65;;;;;;;7.48;100.00;96592.19;5075097;28;24784;-77
2021/09/23 01:22:29;;;;;;;5.72;4.72;;;;;;;7.44;100.00;96585.47;5075486;28;24646;-77
2021/09/23 01:24:55;;;;;;;5.70;4.80;;;;;;;7.40;100.00;96589.06;5073064;28;24792;-76
2021/09/23 01:27:21;;;;;;;5.05;4.50;;;;;;;7.46;99.72;96586.25;5072192;28;24834;-77
2021/09/23 01:29:48;;;;;;;4.70;3.78;;;;;;;7.44;97.02;96577.72;5072137;28;24675;-76
2021/09/23 01:32:16;;;;;;;5.30;3.92;;;;;;;7.27;99.12;96580.13;5072021;28;24525;-76
2021/09/23 01:34:43;;;;;;;7.90;4.50;;;;;;;7.23;100.00;96570.78;5071999;28;24832;-76
2021/09/23 01:37:10;;;;;;;13.30;5.10;;;;;;;7.22;99.74;96566.53;5071623;28;24823;-76
2021/09/23 01:39:38;;;;;;;6.65;4.35;;;;;;;7.24;99.69;96572.50;5071839;28;24419;-76
2021/09/23 01:42:06;;;;;;;7.50;4.57;;;;;;;7.13;100.00;96572.03;5071732;28;24476;-76
2021/09/23 01:44:33;;;;;;;4.47;4.00;;;;;;;7.05;100.00;96571.50;5071350;28;25171;-76
2021/09/23 01:47:00;;;;;;;4.88;3.80;;;;;;;7.00;100.00;96569.06;5071803;28;24434;-76
2021/09/23 01:49:26;;;;;;;3.63;3.20;;;;;;;7.07;100.00;96560.22;5071721;28;24418;-77
2021/09/23 01:51:53;;;;;;;4.70;4.18;;;;;;;7.12;100.00;96571.22;5071975;28;24446;-75
2021/09/23 01:54:19;;;;;;;5.60;5.00;;;;;;;7.25;100.00;96566.44;5074765;28;24423;-75
2021/09/23 01:56:52;;;;;;;6.20;4.50;;;;;;;7.26;100.00;96565.53;5074053;28;24426;-76
2021/09/23 01:59:19;;;;;;;5.38;4.60;;;;;;;7.31;100.00;96548.19;5074311;28;24473;-76
2021/09/23 02:01:45;;;;;;;8.00;4.70;;;;;;;7.33;100.00;96551.53;5071017;28;24438;-76
2021/09/23 02:04:12;;;;;;;5.90;4.05;;;;;;;7.29;100.00;96544.81;5074372;28;24441;-77
2021/09/23 02:06:38;;;;;;;7.70;4.72;;;;;;;7.21;100.00;96546.84;5073613;28;25169;-77
2021/09/23 02:09:05;;;;;;;6.00;4.53;;;;;;;7.19;100.00;96544.34;5073711;28;24423;-77
2021/09/23 02:11:31;;;;;;;5.05;4.15;;;;;;;7.18;100.00;96550.34;5072689;28;24637;-77
2021/09/23 02:13:59;;;;;;;5.85;4.18;;;;;;;7.18;100.00;96550.34;5073365;28;24484;-76
2021/09/23 02:16:25;;;;;;;6.22;4.72;;;;;;;7.21;100.00;96544.25;5072958;28;24434;-77
2021/09/23 02:18:52;;;;;;;7.28;5.05;;;;;;;7.24;100.00;96542.41;5073710;28;24415;-76
2021/09/23 02:21:18;;;;;;;6.38;4.70;;;;;;;7.26;100.00;96550.06;5074068;28;24421;-77
2021/09/23 02:23:45;;;;;;;7.07;4.47;;;;;;;7.37;100.00;96549.69;5072131;28;24464;-76
2021/09/23 02:26:11;;;;;;;6.82;4.18;;;;;;;7.25;100.00;96551.81;5070809;28;24785;-76
2021/09/23 02:28:39;;;;;;;4.63;3.90;;;;;;;7.19;100.00;96553.78;5071244;28;24429;-76
2021/09/23 02:31:07;;;;;;;4.93;3.85;;;;;;;7.19;100.00;96548.63;5070771;28;24454;-76
2021/09/23 02:33:34;;;;;;;5.40;4.22;;;;;;;7.09;100.00;96545.56;5070815;28;24442;-76
2021/09/23 02:36:01;;;;;;;4.80;4.10;;;;;;;7.02;100.00;96544.94;5072309;28;24434;-76
2021/09/23 02:38:27;;;;;;;4.57;3.93;;;;;;;7.06;100.00;96544.84;5073133;28;24830;-77
2021/09/23 02:40:55;;;;;;;4.60;3.90;;;;;;;6.96;100.00;96542.56;5073856;28;24434;-77
2021/09/23 02:43:21;;;;;;;6.90;4.10;;;;;;;7.06;99.49;96537.94;5072950;28;24542;-76
2021/09/23 02:45:48;;;;;;;4.47;4.00;;;;;;;7.00;99.87;96531.25;5070451;28;24418;-76
2021/09/23 02:48:15;;;;;;;5.15;4.40;;;;;;;6.88;100.00;96521.41;5070028;28;24496;-76
2021/09/23 02:50:42;;;;;;;6.93;4.80;;;;;;;6.85;100.00;96510.38;5070543;28;24454;-77
2021/09/23 02:53:08;;;;;;;5.35;4.47;;;;;;;6.74;100.00;96508.19;5070439;28;24987;-77
2021/09/23 02:55:35;;;;;;;5.55;4.90;;;;;;;6.74;100.00;96500.47;5070454;28;24415;-76
2021/09/23 02:58:02;;;;;;;5.35;4.70;;;;;;;6.77;100.00;96492.63;5072303;28;24947;-76
2021/09/23 03:00:29;;;;;;;4.75;4.25;;;;;;;6.83;100.00;96494.16;5077937;22;24529;-77
2021/09/23 03:02:55;;;;;;;6.90;4.35;;;;;;;6.86;100.00;96487.19;5050791;28;24484;-77
2021/09/23 03:05:23;;;;;;;5.00;4.50;;;;;;;6.93;100.00;96482.63;5050398;28;24998;-77
2021/09/23 03:07:49;;;;;;;6.40;4.38;;;;;;;6.90;100.00;96480.19;5050392;28;24423;-77
2021/09/23 03:10:16;;;;;;;3.47;2.90;;;;;;;6.81;100.00;96480.50;5050539;28;24442;-77
2021/09/23 03:12:42;;;;;;;3.75;3.30;;;;;;;6.85;100.00;96476.91;5050135;28;25007;-77
2021/09/23 03:15:09;;;;;;;3.53;2.95;;;;;;;6.85;100.00;96476.91;5050295;28;24423;-77
2021/09/23 03:17:36;;;;;;;7.55;2.70;;;;;;;6.71;100.00;96485.13;5050388;28;24407;-77
2021/09/23 03:20:03;;;;;;;11.10;2.50;;;;;;;6.51;100.00;96480.72;5050201;28;24435;-77
2021/09/23 03:22:33;;;;;;;3.88;2.90;;;;;;;6.57;100.00;96483.06;5050539;28;24419;-77
2021/09/23 03:24:59;;;;;;;3.63;2.88;;;;;;;6.59;100.00;96486.41;5049972;28;24446;-77
2021/09/23 03:27:26;;;;;;;7.15;4.15;;;;;;;6.58;100.00;96481.34;5050404;28;24831;-78
2021/09/23 03:29:52;;;;;;;3.78;3.10;;;;;;;6.57;100.00;96475.34;5050328;28;24423;-77
2021/09/23 03:32:18;;;;;;;4.13;3.00;;;;;;;6.53;100.00;96474.63;5050098;28;25002;-77
2021/09/23 03:34:45;;;;;;;2.90;2.60;;;;;;;6.59;100.00;96462.41;5049719;28;24971;-77
2021/09/23 03:37:11;;;;;;;2.58;2.38;;;;;;;6.59;100.00;96473.53;5050395;28;24514;-78
2021/09/23 03:39:39;;;;;;;2.47;2.28;;;;;;;6.54;100.00;96472.88;5049955;28;24979;-77
2021/09/23 03:42:06;;;;;;;3.20;2.30;;;;;;;6.55;100.00;96470.25;5049999;28;24468;-77
2021/09/23 03:44:32;;;;;;;2.97;2.67;;;;;;;6.61;100.00;96469.19;5050006;28;24427;-77
2021/09/23 03:46:59;;;;;;;7.78;2.50;;;;;;;6.61;100.00;96463.22;5050044;28;24426;-77
2021/09/23 03:49:25;;;;;;;3.13;2.78;;;;;;;6.68;100.00;96454.38;5049942;28;24469;-77
2021/09/23 03:51:52;;;;;;;3.58;2.67;;;;;;;6.72;100.00;96449.06;5050011;28;24482;-77
2021/09/23 03:54:19;;;;;;;4.47;2.78;;;;;;;6.76;100.00;96440.31;5050076;28;24941;-77
2021/09/23 03:56:46;;;;;;;3.47;2.85;;;;;;;6.77;100.00;96451.44;5049713;28;24436;-77
2021/09/23 03:59:13;;;;;;;8.48;2.55;;;;;;;6.63;100.00;96457.09;5051291;28;24971;-77
2021/09/23 04:01:40;;;;;;;14.18;3.20;;;;;;;6.37;100.00;96455.44;5053678;28;24435;-77
2021/09/23 04:04:06;;;;;;;3.28;2.65;;;;;;;6.39;100.00;96455.41;5053704;28;24453;-77
2021/09/23 04:06:33;;;;;;;3.25;2.95;;;;;;;6.40;100.00;96455.34;5053641;28;24422;-77
2021/09/23 04:08:59;;;;;;;3.83;3.03;;;;;;;6.49;100.00;96454.19;5053705;28;24419;-77
2021/09/23 04:11:25;;;;;;;3.10;2.80;;;;;;;6.33;98.51;96456.47;5053510;28;24491;-76
2021/09/23 04:13:53;;;;;;;3.65;2.95;;;;;;;6.27;99.19;96447.22;5053704;28;24473;-76
2021/09/23 04:16:20;;;;;;;3.22;2.83;;;;;;;6.20;99.20;96445.78;5053231;28;24819;-77
2021/09/23 04:18:46;;;;;;;4.50;3.28;;;;;;;6.02;100.00;96446.41;5050499;28;24828;-82
2021/09/23 04:21:13;;;;;;;3.65;3.30;;;;;;;5.99;100.00;96441.34;5049146;28;25030;-76
2021/09/23 04:23:39;;;;;;;4.53;3.85;;;;;;;6.01;100.00;96443.00;5052956;28;25029;-77
2021/09/23 04:26:05;;;;;;;4.72;4.22;;;;;;;5.98;100.00;96439.69;5053008;28;24423;-77
2021/09/23 04:28:32;;;;;;;6.20;3.42;;;;;;;5.93;100.00;96434.72;5053186;28;24464;-76
2021/09/23 04:31:00;;;;;;;4.97;3.63;;;;;;;6.05;100.00;96439.41;5052784;28;24465;-77
2021/09/23 04:33:26;;;;;;;6.63;3.45;;;;;;;6.13;100.00;96433.19;5053060;28;24983;-76
2021/09/23 04:35:54;;;;;;;12.40;3.25;;;;;;;6.25;100.00;96423.28;5052824;28;24419;-76
2021/09/23 04:38:21;;;;;;;3.97;3.03;;;;;;;6.33;100.00;96425.59;5052842;28;24967;-76
2021/09/23 04:40:49;;;;;;;3.78;3.00;;;;;;;6.32;100.00;96426.47;5052942;28;24419;-77
2021/09/23 04:43:15;;;;;;;5.32;3.08;;;;;;;6.36;100.00;96424.66;5052760;28;24490;-76
2021/09/23 04:45:42;;;;;;;3.10;2.80;;;;;;;6.35;100.00;96405.81;5051900;28;24438;-77
2021/09/23 04:48:09;;;;;;;4.93;2.75;;;;;;;6.39;100.00;96404.78;5052409;28;24477;-76
2021/09/23 04:50:36;;;;;;;3.88;2.40;;;;;;;6.40;100.00;96401.31;5052726;28;24457;-76
2021/09/23 04:53:02;;;;;;;5.55;2.33;;;;;;;6.40;100.00;96403.06;5052789;28;24439;-76
2021/09/23 04:55:29;;;;;;;3.20;2.10;;;;;;;6.40;100.00;96403.88;5052552;28;24434;-76
2021/09/23 04:57:55;;;;;;;4.77;1.87;;;;;;;6.39;100.00;96398.81;5052192;28;24441;-76
2021/09/23 05:00:22;;;;;;;2.20;2.00;;;;;;;6.36;100.00;96406.63;5051918;28;24488;-77
2021/09/23 05:02:49;;;;;;;2.15;1.95;;;;;;;6.38;100.00;96407.41;5051211;28;24465;-76
2021/09/23 05:05:16;;;;;;;4.38;2.88;;;;;;;6.29;100.00;96406.00;5051622;28;24968;-76
2021/09/23 05:07:43;;;;;;;5.82;2.58;;;;;;;6.29;100.00;96416.31;5051915;28;24432;-75
2021/09/23 05:10:10;;;;;;;3.22;2.42;;;;;;;6.20;100.00;96422.63;5051882;28;24442;-76
2021/09/23 05:12:36;;;;;;;6.80;2.90;;;;;;;6.08;100.00;96423.03;5051814;28;24447;-76
2021/09/23 05:15:03;;;;;;;6.23;3.03;;;;;;;5.95;100.00;96422.63;5051711;28;24435;-76
2021/09/23 05:17:30;;;;;;;4.00;3.55;;;;;;;5.94;100.00;96409.84;5044231;28;24438;-76
2021/09/23 05:19:57;;;;;;;5.63;4.68;;;;;;;5.99;100.00;96413.91;5043821;28;24493;-76
2021/09/23 05:22:27;;;;;;;3.80;3.40;;;;;;;5.72;100.00;96397.66;5049048;28;24428;-75
2021/09/23 05:24:53;;;;;;;4.15;3.00;;;;;;;5.89;100.00;96396.25;5051492;28;24440;-76
2021/09/23 05:27:20;;;;;;;3.30;3.00;;;;;;;6.02;100.00;96392.41;5040478;28;24982;-75
2021/09/23 05:29:46;;;;;;;3.10;2.75;;;;;;;6.17;100.00;96394.44;5036940;28;24974;-76
2021/09/23 05:32:13;;;;;;;3.92;2.60;;;;;;;6.26;100.00;96393.25;5052314;28;24443;-76
2021/09/23 05:34:39;;;;;;;8.10;2.70;;;;;;;6.23;100.00;96391.66;5052162;28;24446;-76
2021/09/23 05:37:06;;;;;;;4.25;2.90;;;;;;;6.28;100.00;96387.16;5032304;28;24427;-75
2021/09/23 05:39:34;;;;;;;7.10;2.43;;;;;;;6.18;100.00;96392.69;5032233;28;24435;-76
2021/09/23 05:42:02;;;;;;;4.50;2.90;;;;;;;6.24;100.00;96395.06;5040044;28;24457;-77
2021/09/23 05:44:29;;;;;;;3.72;2.72;;;;;;;6.30;100.00;96392.25;5049007;28;24504;-77
2021/09/23 05:46:56;;;;;;;14.73;2.72;;;;;;;6.23;100.00;96378.78;5052752;28;24879;-76
2021/09/23 05:49:23;;;;;;;2.55;2.35;;;;;;;6.27;100.00;96382.94;5051703;28;24512;-76
2021/09/23 05:51:51;;;;;;;21.63;2.70;;;;;;;6.11;100.00;96380.94;5051951;28;24512;-77
2021/09/23 05:54:18;;;;;;;8.27;2.72;;;;;;;6.32;100.00;96381.91;5051961;28;24469;-76
2021/09/23 05:56:46;;;;;;;3.60;2.60;;;;;;;6.41;100.00;96379.00;5051502;28;24423;-76
2021/09/23 05:59:12;;;;;;;9.75;3.75;;;;;;;6.25;100.00;96386.44;5052009;28;24427;-77
2021/09/23 06:01:38;;;;;;;5.53;3.90;;;;;;;6.40;100.00;96377.31;5051540;28;24469;-76
2021/09/23 06:04:05;;;;;;;9.85;3.95;;;;;;;6.39;100.00;96368.78;5051722;28;24431;-77
2021/09/23 06:06:31;;;;;;;5.95;3.90;;;;;;;6.33;100.00;96361.28;5050921;28;24964;-76
2021/09/23 06:08:59;;;;;;;5.90;4.15;;;;;;;6.28;100.00;96356.31;5051660;28;24419;-77
2021/09/23 06:11:26;;;;;;;11.18;3.65;;;;;;;6.27;100.00;96362.34;5046464;28;24446;-76
2021/09/23 06:13:54;;;;;;;5.70;3.17;;;;;;;6.46;100.00;96365.09;5052656;28;24443;-77
2021/09/23 06:16:20;;;;;;;5.32;3.20;;;;;;;6.62;100.00;96365.34;5051350;28;24442;-72
2021/09/23 06:18:47;;;;;;;3.97;3.17;;;;;;;6.78;100.00;96357.88;5051191;28;24497;-75
2021/09/23 06:21:13;;;;;;;7.57;4.03;;;;;;;6.73;100.00;96364.94;5051268;28;24481;-75
2021/09/23 06:23:40;;;;;;;8.88;3.80;;;;;;;6.84;100.00;96370.50;5050011;28;24816;-75
2021/09/23 06:26:06;;;;;;;3.95;3.50;;;;;;;6.84;100.00;96375.66;5050945;28;24430;-75
2021/09/23 06:28:33;;;;;;;7.70;3.70;;;;;;;6.99;100.00;96366.50;5051071;28;24419;-75
2021/09/23 06:31:02;;;;;;;8.23;3.53;;;;;;;6.98;100.00;96357.13;5050863;28;24956;-76
2021/09/23 06:33:29;;;;;;;10.30;3.97;;;;;;;7.16;100.00;96361.53;5050890;28;24876;-76
2021/09/23 06:35:56;;;;;;;5.95;3.60;;;;;;;7.39;100.00;96364.94;5050825;28;24435;-76
2021/09/23 06:38:22;;;;;;;4.57;3.33;;;;;;;7.65;100.00;96362.13;5051029;28;24473;-76
2021/09/23 06:40:50;;;;;;;4.10;3.40;;;;;;;7.46;100.00;96372.34;5050930;28;24513;-76
2021/09/23 06:43:17;;;;;;;4.78;3.60;;;;;;;7.59;100.00;96370.09;5051056;28;24539;-75
2021/09/23 06:45:43;;;;;;;5.13;3.25;;;;;;;7.87;100.00;96367.19;5050550;28;24967;-75
2021/09/23 06:48:11;;;;;;;6.43;3.40;;;;;;;8.16;100.00;96378.84;5050575;28;24426;-75
2021/09/23 06:50:37;;;;;;;8.02;2.90;;;;;;;8.37;100.00;96371.94;5050456;28;24430;-75
2021/09/23 06:53:04;;;;;;;4.82;3.47;;;;;;;8.24;100.00;96374.19;5050773;28;24446;-75
2021/09/23 06:55:31;;;;;;;10.10;3.65;;;;;;;8.44;100.00;96375.91;5050671;28;21113;-75
2021/09/23 06:57:57;;;;;;;4.53;3.20;;;;;;;8.69;100.00;96367.91;5050625;28;20810;-75
2021/09/23 07:00:24;;;;;;;4.57;3.08;;;;;;;8.89;100.00;96359.22;5050634;28;24435;-74
2021/09/23 07:02:50;;;;;;;5.88;3.20;;;;;;;8.83;100.00;96359.53;5051123;28;20809;-75
2021/09/23 07:05:18;;;;;;;5.25;3.20;;;;;;;8.80;100.00;96361.41;5050903;28;24440;-75
2021/09/23 07:07:45;;;;;;;7.88;3.90;;;;;;;8.85;100.00;96360.28;5051499;28;21097;-75
2021/09/23 07:10:11;;;;;;;8.93;4.35;;;;;;;8.68;100.00;96370.56;5050849;28;24550;-77
2021/09/23 07:12:38;;;;;;;9.85;4.53;;;;;;;8.65;100.00;96379.28;5051207;28;24458;-76
2021/09/23 07:15:06;;;;;;;7.60;4.40;;;;;;;8.85;100.00;96375.78;5050471;28;24430;-76
2021/09/23 07:17:33;;;;;;;8.95;4.30;;;;;;;9.13;100.00;96367.59;5050883;28;20781;-76
2021/09/23 07:19:59;;;;;;;9.13;4.70;;;;;;;9.27;100.00;96363.47;5050461;28;21149;-76
2021/09/23 07:22:27;;;;;;;7.50;4.93;;;;;;;9.35;100.00;96359.63;5050523;28;24797;-76
2021/09/23 07:24:54;;;;;;;7.22;4.30;;;;;;;9.61;100.00;96363.53;5050501;28;20774;-77
2021/09/23 07:27:20;;;;;;;6.50;4.55;;;;;;;9.82;100.00;96361.59;5050546;28;24427;-75
2021/09/23 07:29:46;;;;;;;7.38;4.38;;;;;;;10.39;100.00;96356.16;5050572;28;24419;-75
2021/09/23 07:32:15;;;;;;;10.65;4.60;;;;;;;10.37;100.00;96352.78;5050634;28;24447;-76
2021/09/23 07:34:42;;;;;;;7.28;4.43;;;;;;;10.49;100.00;96359.91;5052862;28;24541;-76
2021/09/23 07:37:09;;;;;;;8.00;4.50;;;;;;;10.83;100.00;96358.13;5055243;28;24423;-76
2021/09/23 07:39:37;;;;;;;8.27;4.35;;;;;;;10.97;98.34;96360.78;5054687;28;24423;-76
2021/09/23 07:42:04;;;;;;;10.00;4.70;;;;;;;10.92;99.23;96367.13;5054846;28;24466;-75
2021/09/23 07:44:32;;;;;;;5.57;4.10;;;;;;;11.41;100.00;96377.38;5054518;28;24419;-75
2021/09/23 07:47:00;;;;;;;8.70;4.85;;;;;;;11.72;94.97;96372.13;5054271;28;24958;-76
2021/09/23 07:49:27;;;;;;;9.73;4.78;;;;;;;11.83;95.34;96366.31;5054415;28;24866;-75
2021/09/23 07:51:53;;;;;;;7.07;4.50;;;;;;;12.23;93.99;96367.41;5054583;28;24431;-76
2021/09/23 07:54:19;;;;;;;8.10;4.35;;;;;;;12.46;92.99;96370.38;5055075;28;24423;-76
2021/09/23 07:56:48;;;;;;;7.88;4.13;;;;;;;12.25;92.91;96370.75;5054380;28;24979;-76
2021/09/23 07:59:14;;;;;;;10.60;4.40;;;;;;;12.42;92.84;96364.56;5054150;28;24824;-76
2021/09/23 08:01:40;;;;;;;11.63;4.25;;;;;;;12.40;92.06;96365.56;5055698;28;24431;-76
2021/09/23 08:04:07;;;;;;;7.40;3.88;;;;;;;12.78;91.82;96361.44;5054382;28;24824;-76
2021/09/23 08:06:33;;;;;;;5.70;3.95;;;;;;;12.98;89.30;96365.41;5054156;28;24785;-76
2021/09/23 08:09:00;;;;;;;4.70;3.58;;;;;;;13.38;91.38;96373.28;5054182;28;24419;-76
2021/09/23 08:11:26;;;;;;;5.55;3.63;;;;;;;13.94;87.50;96365.31;5054041;28;24457;-76
2021/09/23 08:13:54;;;;;;;4.80;3.42;;;;;;;13.99;83.93;96358.03;5054057;28;24455;-76
2021/09/23 08:16:21;;;;;;;6.17;3.63;;;;;;;14.26;85.05;96353.56;5053922;28;24429;-76
2021/09/23 08:18:47;;;;;;;5.97;3.33;;;;;;;14.36;82.72;96353.78;5053964;28;24431;-75
2021/09/23 08:21:14;;;;;;;6.60;3.40;;;;;;;14.08;83.29;96370.44;5053857;28;24480;-76
2021/09/23 08:23:40;;;;;;;7.80;3.38;;;;;;;14.21;82.35;96360.03;5053923;28;24415;-76
2021/09/23 08:26:07;;;;;;;5.38;3.30;;;;;;;14.13;82.70;96365.78;5053170;28;24430;-76
2021/09/23 08:28:35;;;;;;;6.22;2.95;;;;;;;14.62;84.13;96357.22;5053598;28;24871;-76
2021/09/23 08:31:03;;;;;;;5.18;3.22;;;;;;;15.25;82.59;96360.59;5053445;28;24442;-77
2021/09/23 08:33:30;;;;;;;7.38;3.13;;;;;;;15.67;79.34;96359.28;5057870;28;24525;-77
2021/09/23 08:35:56;;;;;;;4.60;3.20;;;;;;;16.02;80.21;96360.19;5054675;28;24419;-77
2021/09/23 08:38:23;;;;;;;9.07;3.70;;;;;;;16.29;80.75;96360.75;5053731;28;24462;-77
2021/09/23 08:40:50;;;;;;;6.38;3.42;;;;;;;16.41;79.27;96356.34;5053649;28;24441;-77
2021/09/23 08:43:18;;;;;;;7.35;3.13;;;;;;;16.65;74.50;96362.31;5053261;28;24426;-76
2021/09/23 08:45:45;;;;;;;6.65;3.72;;;;;;;16.11;73.58;96362.97;5052607;28;24510;-77
2021/09/23 08:48:13;;;;;;;5.80;3.28;;;;;;;16.40;76.79;96357.31;5053190;28;24526;-76
2021/09/23 08:50:39;;;;;;;7.53;3.07;;;;;;;16.35;72.45;96343.75;5053554;28;24453;-77
2021/09/23 08:53:06;;;;;;;4.15;2.70;;;;;;;16.32;72.34;96344.81;5053516;28;24998;-76
2021/09/23 08:55:34;;;;;;;7.40;2.20;;;;;;;16.69;71.86;96337.59;5053889;28;24426;-77
2021/09/23 08:58:03;;;;;;;4.40;2.50;;;;;;;16.87;69.20;96330.13;5053525;28;24480;-77
2021/09/23 09:00:30;;;;;;;3.95;2.28;;;;;;;16.88;68.02;96328.31;5089234;22;24790;-81
2021/09/23 09:03:01;;;;;;;3.65;2.13;;;;;;;16.97;66.43;96324.13;5037133;28;24447;-78
2021/09/23 09:05:30;;;;;;;3.60;2.08;;;;;;;17.13;65.45;96328.03;5018043;28;24456;-80
2021/09/23 09:11:24;;;;;;;2.85;2.00;;;;;;;17.73;64.24;96332.81;5006060;28;24474;-78
2021/09/23 09:13:53;;;;;;;3.13;2.33;;;;;;;17.58;65.20;96338.34;5023368;28;24973;-77
2021/09/23 09:16:31;;;;;;;3.97;2.20;;;;;;;17.64;67.93;96342.25;5041758;28;24460;-79
2021/09/23 09:19:18;;;;;;;3.58;2.38;;;;;;;17.81;65.95;96335.66;5041911;28;24654;-79
2021/09/23 09:21:47;;;;;;;6.38;2.10;;;;;;;17.99;65.63;96328.06;5045640;28;24486;-77
2021/09/23 09:24:17;;;;;;;3.87;2.07;;;;;;;18.47;62.70;96323.09;5035985;28;24432;-77
2021/09/23 09:26:44;;;;;;;6.63;2.47;;;;;;;18.14;64.52;96317.13;5040533;28;24424;-78
2021/09/23 09:32:38;;;;;;;3.67;2.00;;;;;;;18.13;63.65;96307.59;5027537;28;24439;-78
2021/09/23 09:35:06;;;;;;;6.55;2.58;;;;;;;18.57;64.62;96308.19;5032864;28;24460;-78
2021/09/23 09:37:34;;;;;;;2.30;2.00;;;;;;;18.45;61.07;96304.00;5014502;28;24424;-77
2021/09/23 09:40:01;;;;;;;3.70;1.92;;;;;;;18.49;64.86;96301.94;5015457;28;24423;-77
2021/09/23 09:50:17;;;;;;;3.95;2.28;;;;;;;19.19;59.01;96295.00;5018591;28;24439;-79
2021/09/23 09:53:05;;;;;;;3.85;2.20;;;;;;;19.16;58.96;96290.81;5016895;28;24831;-78
2021/09/23 09:55:34;;;;;;;2.40;1.90;;;;;;;19.13;60.83;96293.72;5019564;28;24440;-77
2021/09/23 09:58:01;;;;;;;4.43;1.83;;;;;;;18.95;58.31;96296.19;5016895;28;24519;-78
2021/09/23 10:00:29;;;;;;;2.80;1.88;;;;;;;19.08;56.20;96281.00;5014842;28;25124;-79
2021/09/23 10:02:56;;;;;;;2.35;1.63;;;;;;;18.94;57.77;96284.03;5017031;28;24783;-79
2021/09/23 10:05:25;;;;;;;1.80;1.58;;;;;;;19.03;58.56;96280.59;5016148;28;21537;-78
2021/09/23 10:07:55;;;;;;;2.60;1.63;;;;;;;19.06;58.38;96271.63;5017039;28;24437;-78
2021/09/23 10:10:25;;;;;;;3.63;2.00;;;;;;;18.87;59.74;96267.16;5027324;28;24436;-77
2021/09/23 10:12:55;;;;;;;1.90;1.60;;;;;;;19.34;59.31;96270.81;5033151;28;24460;-79
2021/09/23 10:15:21;;;;;;;2.42;1.80;;;;;;;19.87;59.36;96268.72;5033680;28;24474;-77
2021/09/23 10:17:49;;;;;;;1.85;1.70;;;;;;;20.05;56.66;96264.38;5034048;28;24466;-78
2021/09/23 10:20:17;;;;;;;3.00;1.85;;;;;;;20.36;56.36;96266.75;5033672;28;24798;-78
2021/09/23 10:22:44;;;;;;;3.83;1.98;;;;;;;19.91;55.51;96260.41;5033265;28;24490;-78
2021/09/23 10:25:15;;;;;;;3.35;1.90;;;;;;;20.18;56.26;96262.28;5034063;28;24423;-78
2021/09/23 10:27:59;;;;;;;5.53;1.85;;;;;;;19.90;56.28;96255.28;5035342;28;24428;-77
2021/09/23 10:30:27;;;;;;;3.00;1.75;;;;;;;19.50;54.62;96264.97;5032676;28;24775;-78
2021/09/23 10:32:54;;;;;;;3.00;1.60;;;;;;;19.42;57.10;96261.41;5033749;28;24489;-78
2021/09/23 10:35:23;;;;;;;4.10;1.58;;;;;;;19.36;56.14;96256.72;5033570;28;24459;-76
2021/09/23 10:37:51;;;;;;;2.28;1.58;;;;;;;19.34;55.32;96264.72;5033522;28;24941;-78
2021/09/23 10:40:20;;;;;;;2.40;1.73;;;;;;;19.39;55.41;96262.50;5033992;28;24452;-76
2021/09/23 10:42:49;;;;;;;3.40;1.90;;;;;;;19.80;58.46;96255.28;5033475;28;24424;-78
2021/09/23 10:45:19;;;;;;;3.65;1.70;;;;;;;19.99;54.98;96257.91;5033342;28;24428;-79
2021/09/23 10:47:49;;;;;;;2.67;1.50;;;;;;;20.02;55.86;96252.38;5033434;28;24510;-77
2021/09/23 10:50:20;;;;;;;2.90;1.80;;;;;;;19.58;56.10;96264.31;5014890;28;24440;-78
2021/09/23 10:52:47;;;;;;;1.85;1.48;;;;;;;19.68;56.43;96262.50;5013908;28;24447;-78
2021/09/23 10:55:15;;;;;;;3.93;1.77;;;;;;;19.90;55.19;96261.38;5013624;28;24432;-78
2021/09/23 10:57:44;;;;;;;2.80;1.53;;;;;;;19.94;56.98;96259.28;5013365;28;24479;-78
2021/09/23 11:00:12;;;;;;;2.55;1.50;;;;;;;20.18;54.22;96254.38;5014512;28;24435;-77
2021/09/23 11:02:41;;;;;;;2.63;1.67;;;;;;;20.30;56.44;96255.03;5015461;28;24447;-77
2021/09/23 11:05:12;;;;;;;2.83;1.70;;;;;;;20.08;55.03;96256.22;5019169;28;24421;-78
2021/09/23 11:07:44;;;;;;;2.22;1.50;;;;;;;20.15;55.00;96256.47;5017831;28;24423;-77
2021/09/23 11:10:15;;;;;;;2.70;1.50;;;;;;;20.25;55.64;96252.84;5015745;28;24960;-77
2021/09/23 11:12:44;;;;;;;2.33;1.63;;;;;;;20.19;55.70;96256.03;5017174;28;24439;-77
2021/09/23 11:15:14;;;;;;;2.88;1.95;;;;;;;20.15;54.80;96243.31;5018046;28;24440;-78
2021/09/23 11:17:50;;;;;;;3.75;1.75;;;;;;;20.10;56.45;96241.13;5016176;28;24428;-78
2021/09/23 11:20:25;;;;;;;2.25;1.67;;;;;;;20.15;55.27;96236.25;5032153;28;24515;-78
2021/09/23 11:22:54;;;;;;;4.65;2.15;;;;;;;20.29;59.30;96224.44;5032480;28;24476;-76
2021/09/23 11:25:22;;;;;;;2.80;1.70;;;;;;;20.44;58.24;96217.72;5034389;28;25008;-77
2021/09/23 11:27:52;;;;;;;4.85;1.90;;;;;;;20.17;54.17;96220.31;5035208;28;24790;-76
2021/09/23 11:30:21;;;;;;;2.92;1.80;;;;;;;20.01;55.18;96226.19;5034555;28;24489;-78
2021/09/23 11:32:50;;;;;;;3.00;1.80;;;;;;;20.31;55.06;96215.41;5034370;28;24420;-78
2021/09/23 11:35:18;;;;;;;2.63;1.63;;;;;;;20.26;55.36;96212.41;5032867;28;24455;-77
2021/09/23 11:37:45;;;;;;;1.53;1.40;;;;;;;20.32;54.60;96203.13;5035647;28;24952;-77
2021/09/23 11:40:13;;;;;;;2.13;1.45;;;;;;;20.21;54.99;96200.66;5033289;28;24415;-79
2021/09/23 11:42:43;;;;;;;3.45;1.88;;;;;;;20.12;53.05;96204.16;5034437;28;24458;-77
2021/09/23 11:45:14;;;;;;;3.55;1.65;;;;;;;20.22;54.39;96202.31;5033514;28;24941;-79
2021/09/23 11:47:52;;;;;;;2.17;1.70;;;;;;;20.07;53.71;96194.09;5036125;28;24455;-77
2021/09/23 11:50:24;;;;;;;2.35;1.80;;;;;;;20.16;53.73;96195.00;5033922;28;24434;-78